createdAt,value
2018-12-24T00:04:25.894Z,7.33
2018-12-24T00:14:48.047Z,8.37
2018-12-24T00:25:10.268Z,8.87
2018-12-24T00:35:31.930Z,9.70
2018-12-24T00:45:54.166Z,8.80
2018-12-24T00:56:16.698Z,8.85
2018-12-24T01:06:38.812Z,10.53
2018-12-24T01:17:00.928Z,9.43
2018-12-24T01:27:23.306Z,8.80
2018-12-24T01:37:45.478Z,8.20
2018-12-24T01:48:07.682Z,7.57
2018-12-24T01:58:29.929Z,8.27
2018-12-24T02:08:52.122Z,7.60
2018-12-24T02:19:14.298Z,7.03
2018-12-24T02:29:36.888Z,8.53
2018-12-24T02:39:59.138Z,8.37
2018-12-24T02:50:21.456Z,8.80
2018-12-24T03:00:43.294Z,11.37
2018-12-24T03:11:05.551Z,11.97
2018-12-24T03:21:28.030Z,14.10
2018-12-24T03:31:50.217Z,14.67
2018-12-24T03:42:12.997Z,17.10
2018-12-24T03:52:35.263Z,15.60
2018-12-24T04:02:57.312Z,16.27
2018-12-24T04:13:22.575Z,17.20
2018-12-24T04:23:43.215Z,16.90
2018-12-24T04:34:05.372Z,15.93
2018-12-24T04:44:27.727Z,15.27
2018-12-24T04:54:49.624Z,12.87
2018-12-24T05:05:11.869Z,11.40
2018-12-24T05:15:34.130Z,9.83
2018-12-24T05:25:56.547Z,8.70
2018-12-24T05:36:18.843Z,7.73
2018-12-24T05:46:41.044Z,8.20
2018-12-24T05:57:03.930Z,8.00
2018-12-24T06:07:25.929Z,7.53
2018-12-24T06:17:47.824Z,6.83
2018-12-24T06:28:09.682Z,6.50
2018-12-24T06:38:31.559Z,6.07
2018-12-24T06:48:53.708Z,5.63
2018-12-24T06:59:16.215Z,6.43
2018-12-24T07:09:38.070Z,5.97
2018-12-24T07:19:59.939Z,5.80
2018-12-24T07:30:22.073Z,5.97
2018-12-24T07:40:44.617Z,6.10
2018-12-24T07:51:06.827Z,6.37
2018-12-24T08:01:29.180Z,5.20
2018-12-24T08:11:51.762Z,5.20
2018-12-24T08:22:14.020Z,5.37
2018-12-24T08:32:36.189Z,5.27
2018-12-24T08:42:58.609Z,4.67
2018-12-24T08:53:20.898Z,5.13
2018-12-24T09:03:43.181Z,4.43
2018-12-24T09:14:05.232Z,3.60
2018-12-24T09:24:27.656Z,3.00
2018-12-24T09:34:49.573Z,3.10
2018-12-24T09:45:11.490Z,3.50
2018-12-24T09:55:33.803Z,3.40
2018-12-24T10:05:58.933Z,3.67
2018-12-24T10:16:20.986Z,4.17
2018-12-24T10:26:43.154Z,3.60
2018-12-24T10:37:05.315Z,3.67
2018-12-24T10:47:27.510Z,3.17
2018-12-24T10:57:50.158Z,2.77
2018-12-24T11:08:12.150Z,2.57
2018-12-24T11:18:34.270Z,2.93
2018-12-24T11:28:56.150Z,2.60
2018-12-24T11:39:18.547Z,2.40
2018-12-24T11:49:41.104Z,2.53
2018-12-24T12:00:03.011Z,2.10
2018-12-24T12:10:25.416Z,2.30
2018-12-24T12:20:52.557Z,2.03
2018-12-24T12:31:11.187Z,2.30
2018-12-24T12:41:33.307Z,2.47
2018-12-24T12:51:55.243Z,1.53
2018-12-24T13:02:18.936Z,1.57
2018-12-24T13:12:41.048Z,2.90
2018-12-24T13:23:03.147Z,1.82
2018-12-24T13:33:25.347Z,1.57
2018-12-24T13:43:47.535Z,1.60
2018-12-24T13:54:09.702Z,1.73
2018-12-24T14:04:31.570Z,1.50
2018-12-24T14:14:53.916Z,2.73
2018-12-24T14:25:15.763Z,3.03
2018-12-24T14:35:37.868Z,2.30
2018-12-24T14:46:00.304Z,1.97
2018-12-24T14:56:22.489Z,2.60
2018-12-24T15:06:45.182Z,2.37
2018-12-24T15:17:07.092Z,2.47
2018-12-24T15:27:28.991Z,2.83
2018-12-24T15:37:51.486Z,3.67
2018-12-24T15:48:14.047Z,5.00
2018-12-24T15:58:36.540Z,7.07
2018-12-24T16:08:59.093Z,5.77
2018-12-24T16:19:20.967Z,7.87
2018-12-24T16:29:43.100Z,6.25
2018-12-24T16:40:05.312Z,7.27
2018-12-24T16:50:27.770Z,8.40
2018-12-24T17:00:49.507Z,12.90
2018-12-24T17:11:11.814Z,13.30
2018-12-24T17:21:33.939Z,11.97
2018-12-24T17:31:58.045Z,10.97
2018-12-24T17:42:19.908Z,13.93
2018-12-24T17:52:42.263Z,12.30
2018-12-24T18:03:04.428Z,10.13
2018-12-24T18:13:26.984Z,14.83
2018-12-24T18:23:48.885Z,15.47
2018-12-24T18:34:11.263Z,14.33
2018-12-24T18:44:33.159Z,14.43
2018-12-24T18:54:55.395Z,15.63
2018-12-24T19:05:17.942Z,14.87
2018-12-24T19:15:40.299Z,18.20
2018-12-24T19:26:02.491Z,21.93
2018-12-24T19:36:24.984Z,16.97
2018-12-24T19:46:47.162Z,13.03
2018-12-24T19:57:09.355Z,12.45
2018-12-24T20:07:31.774Z,11.00
2018-12-24T20:17:58.257Z,12.30
2018-12-24T20:28:18.929Z,10.60
2018-12-24T20:38:41.378Z,9.97
2018-12-24T20:49:04.130Z,10.07
2018-12-24T20:59:25.991Z,9.60
2018-12-24T21:09:48.191Z,9.60
2018-12-24T21:20:10.480Z,10.30
2018-12-24T21:30:34.056Z,11.13
2018-12-24T21:40:56.599Z,11.33
2018-12-24T21:51:18.932Z,9.90
2018-12-24T22:01:40.832Z,13.87
2018-12-24T22:12:03.034Z,10.50
2018-12-24T22:22:24.982Z,9.20
2018-12-24T22:32:47.647Z,9.67
2018-12-24T22:43:09.799Z,9.87
2018-12-24T22:53:32.025Z,9.67
2018-12-24T23:03:54.541Z,9.87
2018-12-24T23:14:16.723Z,8.97
2018-12-24T23:24:38.611Z,9.10
2018-12-24T23:35:00.681Z,8.93
2018-12-24T23:45:22.931Z,9.73
2018-12-24T23:55:45.284Z,10.57
